Stations météo

réclame
Mon MeteoGroup
S. Giovanni Teatino, Italie (16231): Température de l'air & dewpoint: 16.07.2018 08:00:00 - 22.07.2018 08:00:00 (CEST)S. Giovanni Teatino, Italie (16231): Vitesse du vent: 16.07.2018 08:00:00 - 22.07.2018 08:00:00 (CEST)S. Giovanni Teatino, Italie (16231): Direction du vent: 16.07.2018 08:00:00 - 22.07.2018 08:00:00 (CEST)S. Giovanni Teatino, Italie (16231): reduced air pressure: 16.07.2018 08:00:00 - 22.07.2018 08:00:00 (CEST)S. Giovanni Teatino, Italie (16231): Quantités de précipitations: 16.07.2018 08:00:00 - 22.07.2018 08:00:00 (CEST)
Date & Time tt [°C] td [°C] ff [km/h] ff [knt] dd ppp [hPa] rr [mm]
22.07.2018 08:00:00 - - - - - - -
22.07.2018 07:00:00 - - - - - - -
22.07.2018 06:00:00 - - - - - - -
22.07.2018 05:00:00 - - - - - - -
22.07.2018 04:00:00 - - - - - - -
22.07.2018 03:00:00 - - - - - - -
22.07.2018 02:00:00 - - - - - - -
22.07.2018 01:00:00 - - - - - - -
22.07.2018 00:00:00 - - - - - - -
21.07.2018 23:00:00 - - - - - - -
21.07.2018 22:00:00 24,5 22,9 9 5 WSW 1008,3 -
21.07.2018 21:00:00 25,2 21,8 8 4 WSW 1008,0 -
21.07.2018 20:00:00 26,6 21,7 4 2 NNW 1008,3 0,0
21.07.2018 19:00:00 27,7 20,7 11 6 E 1008,6 -
21.07.2018 18:00:00 28,1 22,1 18 10 ENE 1009,0 -
21.07.2018 17:00:00 28,4 22,8 29 16 ENE 1008,8 -
21.07.2018 16:00:00 29,2 19,8 29 16 ENE 1009,1 -
21.07.2018 15:00:00 31,3 20,2 24 13 ENE 1009,6 -
21.07.2018 14:00:00 28,9 20,0 21 11 E 1010,5 0,0
21.07.2018 13:00:00 31,0 19,3 5 3 E 1011,6 -
21.07.2018 12:00:00 28,8 19,1 13 7 ENE 1011,3 -
21.07.2018 11:00:00 31,9 18,5 2 1 NNW 1011,0 -
21.07.2018 10:00:00 28,9 18,6 9 5 SW 1011,6 -
21.07.2018 09:00:00 26,7 19,0 9 5 SW 1011,5 -
21.07.2018 08:00:00 25,5 17,6 9 5 SW 1011,1 0,0
21.07.2018 07:00:00 24,5 16,9 13 7 SSW 1011,4 -
21.07.2018 06:00:00 25,1 17,2 13 7 SSW 1011,0 -
21.07.2018 05:00:00 25,5 17,6 21 11 SSW 1010,7 -
21.07.2018 04:00:00 25,1 17,5 22 12 SSW 1010,9 -
21.07.2018 03:00:00 25,8 17,6 11 6 N 1010,9 -
21.07.2018 02:00:00 25,1 17,5 13 7 SSW 1011,3 0,0
21.07.2018 01:00:00 25,8 18,2 16 9 SSW 1011,8 -
21.07.2018 00:00:00 26,1 18,2 9 5 SSW 1011,9 -
20.07.2018 23:00:00 26,7 16,8 8 4 S 1012,2 -
20.07.2018 22:00:00 25,2 19,7 21 11 E 1012,0 -
20.07.2018 21:00:00 26,2 18,5 16 9 E 1011,4 -
20.07.2018 20:00:00 28,7 15,9 21 11 E 1011,1 0,0
20.07.2018 19:00:00 29,5 15,9 18 10 E 1011,1 -
20.07.2018 18:00:00 30,3 14,4 24 13 E 1011,0 -
20.07.2018 17:00:00 31,0 16,2 21 11 E 1011,3 -
20.07.2018 16:00:00 31,0 17,6 24 13 ENE 1011,6 -
20.07.2018 15:00:00 30,8 18,8 21 11 ENE 1012,0 -
20.07.2018 14:00:00 30,6 21,9 15 8 ENE 1012,3 0,0
20.07.2018 13:00:00 30,2 21,8 9 5 ENE 1012,9 -
20.07.2018 12:00:00 29,8 21,4 13 7 ENE 1013,0 -
20.07.2018 11:00:00 29,3 20,7 8 4 NE 1013,1 -
20.07.2018 10:00:00 27,1 20,6 4 2 WSW 1013,1 -
20.07.2018 09:00:00 25,4 18,5 5 3 SW 1013,2 -
20.07.2018 08:00:00 24,5 17,9 8 4 SW 1013,0 0,0
20.07.2018 07:00:00 23,4 16,8 13 7 SW 1012,9 -
20.07.2018 06:00:00 23,6 16,8 4 2 SSW 1012,9 -
20.07.2018 05:00:00 23,8 17,2 9 5 SSW 1012,9 -
20.07.2018 04:00:00 23,5 17,2 8 4 SSW 1013,0 -
20.07.2018 03:00:00 24,8 17,9 8 4 SW 1013,0 -
20.07.2018 02:00:00 24,6 18,5 5 3 SW 1013,1 0,0
20.07.2018 01:00:00 24,1 19,3 13 7 WSW 1013,2 -
20.07.2018 00:00:00 24,4 18,7 9 5 WSW 1013,0 -
19.07.2018 23:00:00 25,7 19,3 8 4 SW 1012,7 -
19.07.2018 22:00:00 26,2 19,5 5 3 SSW 1012,5 -
19.07.2018 21:00:00 27,0 19,8 8 4 WSW 1012,0 -
19.07.2018 20:00:00 27,9 18,0 9 5 S 1011,6 0,0
19.07.2018 19:00:00 28,5 18,8 11 6 E 1011,9 -
19.07.2018 18:00:00 29,4 20,8 5 3 ENE 1012,0 -
19.07.2018 17:00:00 28,9 21,9 16 9 ENE 1012,2 -
19.07.2018 16:00:00 28,9 21,4 15 8 ENE 1012,3 -
19.07.2018 15:00:00 30,5 20,4 13 7 ENE 1012,4 -
19.07.2018 14:00:00 30,1 21,2 9 5 ENE 1012,6 0,0
19.07.2018 13:00:00 30,2 20,7 11 6 NE 1012,7 -
19.07.2018 12:00:00 29,9 21,8 11 6 NE 1012,6 -
19.07.2018 11:00:00 29,4 20,5 2 1 WSW 1012,7 -
19.07.2018 10:00:00 27,5 19,8 4 2 WSW 1012,8 -
19.07.2018 09:00:00 25,9 18,5 11 6 SW 1013,1 -
19.07.2018 08:00:00 25,2 17,3 13 7 SSW 1013,2 0,0
19.07.2018 07:00:00 24,3 16,5 15 8 SSW 1013,1 -
19.07.2018 06:00:00 24,5 16,2 13 7 SSW 1013,1 -
19.07.2018 05:00:00 24,2 16,4 8 4 SSW 1012,9 -
19.07.2018 04:00:00 23,8 16,3 11 6 SW 1013,1 -
19.07.2018 03:00:00 23,7 16,4 9 5 SW 1013,2 -
19.07.2018 02:00:00 24,2 16,9 9 5 SW 1013,2 0,0
19.07.2018 01:00:00 24,6 17,0 11 6 SW 1013,1 -
19.07.2018 00:00:00 24,8 17,0 5 3 SSW 1013,0 -
18.07.2018 23:00:00 25,6 16,9 4 2 SW 1012,9 -
18.07.2018 22:00:00 26,6 16,2 5 3 ESE 1012,8 -
18.07.2018 21:00:00 26,7 16,3 4 2 E 1012,7 -
18.07.2018 20:00:00 27,2 17,3 5 3 ENE 1012,6 0,0
18.07.2018 19:00:00 28,1 17,9 5 3 ENE 1012,5 -
18.07.2018 18:00:00 28,5 17,3 13 7 ENE 1012,8 -
18.07.2018 17:00:00 28,7 16,6 15 8 E 1013,3 -
18.07.2018 16:00:00 29,0 17,2 15 8 ENE 1013,4 -
18.07.2018 15:00:00 29,0 16,8 13 7 NNE 1013,7 -
18.07.2018 14:00:00 29,2 17,3 11 6 NNE 1013,9 0,0
18.07.2018 13:00:00 29,5 18,3 11 6 NNW 1014,0 -
18.07.2018 12:00:00 29,5 19,8 4 2 NNW 1014,1 -
18.07.2018 11:00:00 27,6 19,3 5 3 WSW 1014,1 -
18.07.2018 10:00:00 25,5 20,7 8 4 SW 1014,1 -
18.07.2018 09:00:00 23,2 20,3 5 3 SW 1014,1 -
18.07.2018 08:00:00 22,0 19,1 11 6 SW 1014,1 0,0
18.07.2018 07:00:00 21,1 18,4 13 7 SSW 1014,0 -
18.07.2018 06:00:00 20,7 17,8 5 3 SW 1013,7 -
18.07.2018 05:00:00 20,8 17,9 8 4 SW 1013,6 -
18.07.2018 04:00:00 21,2 18,7 11 6 SW 1013,6 -
18.07.2018 03:00:00 20,5 18,9 9 5 SW 1013,6 -
18.07.2018 02:00:00 21,1 19,5 8 4 SW 1013,5 0,0
18.07.2018 01:00:00 21,3 20,4 9 5 SW 1013,8 -
18.07.2018 00:00:00 21,5 20,8 5 3 SW 1013,5 -
17.07.2018 23:00:00 21,6 20,7 5 3 SW 1013,3 -
17.07.2018 22:00:00 22,0 20,6 5 3 SW 1012,9 -
17.07.2018 21:00:00 22,7 19,6 5 3 W 1012,1 -
17.07.2018 20:00:00 24,2 20,1 5 3 WSW 1011,7 0,0
17.07.2018 19:00:00 24,7 21,2 8 4 W 1011,5 -
17.07.2018 18:00:00 24,2 21,1 11 6 WNW 1011,4 -
17.07.2018 17:00:00 24,2 20,9 4 2 NW 1011,7 -
17.07.2018 16:00:00 25,1 21,1 4 2 N 1011,7 -
17.07.2018 15:00:00 25,8 21,2 9 5 NW 1011,2 -
17.07.2018 14:00:00 25,4 20,4 13 7 NW 1011,0 0,0
17.07.2018 13:00:00 25,4 20,1 4 2 NW 1011,0 -
17.07.2018 12:00:00 24,6 20,4 4 2 ENE 1010,5 -
17.07.2018 11:00:00 23,1 20,6 11 6 NE 1010,2 -
17.07.2018 10:00:00 22,0 21,4 8 4 ESE 1009,8 -
17.07.2018 09:00:00 19,4 19,3 5 3 S 1012,4 -
17.07.2018 08:00:00 18,7 18,6 8 4 S 1011,1 -
17.07.2018 07:00:00 18,2 18,1 11 6 ESE 1010,2 -
17.07.2018 06:00:00 18,3 18,2 13 7 ESE 1010,2 -
17.07.2018 05:00:00 18,7 18,6 18 10 E 1009,8 -
17.07.2018 04:00:00 18,9 18,7 34 18 E 1009,7 -
17.07.2018 03:00:00 19,8 18,6 15 8 E 1011,2 -
17.07.2018 02:00:00 20,4 18,6 8 4 N 1010,1 -
17.07.2018 01:00:00 19,5 17,9 8 4 SSW 1011,5 -
17.07.2018 00:00:00 22,0 17,1 16 9 W 1012,2 -
16.07.2018 23:00:00 25,9 20,4 13 7 W 1010,5 -
16.07.2018 22:00:00 26,8 19,6 5 3 WNW 1008,5 -
16.07.2018 21:00:00 29,2 15,3 18 10 SSW 1008,4 -
16.07.2018 20:00:00 27,1 21,3 11 6 E 1008,8 0,0
16.07.2018 19:00:00 26,4 23,4 15 8 ENE 1008,8 -
16.07.2018 18:00:00 27,8 20,6 16 9 ENE 1009,6 -
16.07.2018 17:00:00 29,5 18,3 5 3 S 1011,0 -
16.07.2018 16:00:00 28,1 20,1 5 3 SSE 1011,1 -
16.07.2018 15:00:00 27,6 21,3 5 3 ENE 1012,2 -
16.07.2018 14:00:00 27,8 21,1 13 7 ENE 1012,0 0,0
16.07.2018 13:00:00 26,9 24,1 18 10 ENE 1012,0 -
16.07.2018 12:00:00 28,1 22,1 13 7 NNE 1012,1 -
16.07.2018 11:00:00 29,9 21,0 4 2 W 1012,1 -
16.07.2018 10:00:00 27,8 19,3 5 3 SW 1012,2 -
16.07.2018 09:00:00 27,6 20,1 4 2 S 1012,4 -
16.07.2018 08:00:00 24,4 18,3 11 6 SSW 1012,6 0,0

tt = Température de l'air
td = dewpoint
ff = Vitesse du vent
dd = Direction du vent
ppp = reduced air pressure
rr = Quantités de précipitations

stations d'obs. à proximité